Time;durP1;ratioP1;P1;durP2;ratioP2;P2;SDS_P1;SDS_P2;PMS_P1;PMS_P2;Temp;Humidity;BMP_temperature;BMP_pressure;BME280_temperature;BME280_humidity;BME280_pressure;Samples;Min_cycle;Max_cycle;Signal;HPM_P1;HPM_P2
2023/09/01 00:00:12;;;;;;;5.90;4.20;;;12.10;99.90;;;;;;5019401;28;20528;-88
2023/09/01 00:02:39;;;;;;;6.10;3.53;;;12.10;99.90;;;;;;5037318;28;20170;-89
2023/09/01 00:05:06;;;;;;;5.28;3.75;;;12.10;99.90;;;;;;5019503;28;20211;-89
2023/09/01 00:07:32;;;;;;;4.25;3.58;;;12.10;99.90;;;;;;5037092;28;20171;-89
2023/09/01 00:09:58;;;;;;;4.97;3.65;;;12.20;99.90;;;;;;5019173;28;20265;-89
2023/09/01 00:12:27;;;;;;;5.95;3.67;;;12.10;99.90;;;;;;5036627;28;20274;-89
2023/09/01 00:14:53;;;;;;;5.38;3.63;;;12.10;99.90;;;;;;5037249;28;20167;-89
2023/09/01 00:17:19;;;;;;;6.60;3.20;;;12.10;99.90;;;;;;5036987;28;20629;-89
2023/09/01 00:19:44;;;;;;;11.55;3.70;;;12.10;99.90;;;;;;5036645;28;20518;-88
2023/09/01 00:22:14;;;;;;;4.55;3.42;;;12.10;99.90;;;;;;5019023;28;20543;-89
2023/09/01 00:24:40;;;;;;;4.85;3.60;;;12.10;99.90;;;;;;5036488;28;20201;-89
2023/09/01 00:29:41;;;;;;;5.88;3.50;;;12.10;99.90;;;;;;5165655;23;20228;-88
2023/09/01 00:32:07;;;;;;;4.32;3.25;;;12.10;99.90;;;;;;5096667;28;20168;-88
2023/09/01 00:34:33;;;;;;;6.40;3.50;;;12.10;99.90;;;;;;5078819;28;20230;-90
2023/09/01 00:36:58;;;;;;;4.88;3.08;;;12.10;99.90;;;;;;5078863;28;20211;-89
2023/09/01 00:39:24;;;;;;;5.28;2.90;;;12.10;99.90;;;;;;5078368;28;20184;-91
2023/09/01 00:41:50;;;;;;;3.53;3.20;;;12.00;99.90;;;;;;5096513;28;20169;-89
2023/09/01 00:44:15;;;;;;;4.65;3.42;;;12.10;99.90;;;;;;5096279;28;20204;-89
2023/09/01 00:46:46;;;;;;;3.50;3.15;;;12.00;99.90;;;;;;5078433;28;20602;-88
2023/09/01 00:49:17;;;;;;;3.97;3.15;;;12.10;99.90;;;;;;5078274;28;20173;-89
2023/09/01 00:51:48;;;;;;;7.45;3.58;;;12.10;99.90;;;;;;5078333;28;20168;-88
2023/09/01 00:54:15;;;;;;;5.90;3.03;;;12.10;99.90;;;;;;5078304;28;20173;-89
2023/09/01 00:56:43;;;;;;;6.03;2.70;;;12.00;99.90;;;;;;5096219;28;20172;-89
2023/09/01 00:59:11;;;;;;;5.10;3.38;;;12.00;99.90;;;;;;5064260;28;20181;-89
2023/09/01 01:01:41;;;;;;;4.45;3.40;;;12.00;99.90;;;;;;5057992;28;20186;-88
2023/09/01 01:04:07;;;;;;;4.30;3.40;;;12.00;99.90;;;;;;5058037;28;20201;-90
2023/09/01 01:06:41;;;;;;;4.50;3.20;;;12.00;99.90;;;;;;5057973;28;20592;-89
2023/09/01 01:09:08;;;;;;;6.03;3.45;;;12.00;99.90;;;;;;5057730;28;20216;-88
2023/09/01 01:11:54;;;;;;;5.18;3.17;;;12.00;99.90;;;;;;5057759;28;20177;-88
2023/09/01 01:14:33;;;;;;;4.25;3.15;;;12.00;99.90;;;;;;5026956;28;20189;-88
2023/09/01 01:16:59;;;;;;;3.70;3.03;;;12.00;99.90;;;;;;5057656;28;20169;-88
2023/09/01 01:20:13;;;;;;;4.15;3.17;;;12.00;99.90;;;;;;5057781;28;20180;-87
2023/09/01 01:22:43;;;;;;;4.50;3.40;;;12.00;99.90;;;;;;5032133;28;20267;-87
2023/09/01 01:25:11;;;;;;;5.07;3.00;;;12.00;99.90;;;;;;5057554;28;20236;-88
2023/09/01 01:27:38;;;;;;;5.78;3.33;;;11.90;99.90;;;;;;5075034;28;20646;-87
2023/09/01 01:30:05;;;;;;;4.72;3.42;;;11.90;99.90;;;;;;5057397;28;20598;-89
2023/09/01 01:32:32;;;;;;;5.53;3.60;;;11.90;99.90;;;;;;5057450;28;20173;-87
2023/09/01 01:35:17;;;;;;;3.80;3.05;;;11.90;99.90;;;;;;5057652;28;20185;-88
2023/09/01 01:38:16;;;;;;;4.28;3.22;;;11.90;99.90;;;;;;5075100;28;20208;-86
2023/09/01 01:40:50;;;;;;;3.58;3.00;;;11.90;99.90;;;;;;5057064;28;20177;-88
2023/09/01 01:43:22;;;;;;;3.58;3.28;;;11.90;99.90;;;;;;5057064;28;20177;-89
2023/09/01 01:45:48;;;;;;;6.07;3.55;;;11.90;99.90;;;;;;5057088;28;20278;-88
2023/09/01 01:48:14;;;;;;;4.88;3.40;;;11.90;99.90;;;;;;5057083;28;20173;-87
2023/09/01 01:50:43;;;;;;;5.72;3.15;;;11.90;99.90;;;;;;5057085;28;20179;-89
2023/09/01 01:53:09;;;;;;;5.93;3.30;;;11.90;99.90;;;;;;5056975;28;20267;-88
2023/09/01 01:55:35;;;;;;;5.68;3.60;;;11.90;99.90;;;;;;5057146;28;20212;-88
2023/09/01 01:58:00;;;;;;;5.95;3.58;;;11.80;99.90;;;;;;5074839;28;20196;-88
2023/09/01 02:00:28;;;;;;;4.18;3.28;;;11.80;99.90;;;;;;5057146;28;20177;-88
2023/09/01 02:02:54;;;;;;;5.20;3.28;;;11.80;99.90;;;;;;5056977;28;20237;-89
2023/09/01 02:05:20;;;;;;;7.15;3.38;;;11.80;99.90;;;;;;5056830;28;20603;-88
2023/09/01 02:07:46;;;;;;;5.45;3.03;;;11.80;99.90;;;;;;5056506;28;20315;-89
2023/09/01 02:10:12;;;;;;;5.28;3.00;;;11.80;99.90;;;;;;5074776;28;20173;-86
2023/09/01 02:12:38;;;;;;;5.88;3.42;;;11.80;99.90;;;;;;5056841;28;20226;-88
2023/09/01 02:15:08;;;;;;;5.10;3.35;;;11.90;99.90;;;;;;5074487;28;20180;-88
2023/09/01 02:17:38;;;;;;;6.35;3.50;;;11.80;99.90;;;;;;5056497;28;20177;-89
2023/09/01 02:20:18;;;;;;;3.95;3.33;;;11.80;99.90;;;;;;5056557;28;20178;-89
2023/09/01 02:22:45;;;;;;;5.90;3.70;;;11.80;99.90;;;;;;5056750;28;20177;-88
2023/09/01 02:25:12;;;;;;;5.15;3.28;;;11.80;99.90;;;;;;5056622;28;20212;-87
2023/09/01 02:27:40;;;;;;;5.05;3.42;;;11.70;99.90;;;;;;5056394;28;20599;-86
2023/09/01 02:30:08;;;;;;;4.32;3.38;;;11.70;99.90;;;;;;5074345;28;20165;-88
2023/09/01 02:32:34;;;;;;;3.80;3.50;;;11.80;99.90;;;;;;5056643;28;20165;-88
2023/09/01 02:35:00;;;;;;;5.05;3.40;;;11.70;99.90;;;;;;5074775;28;20507;-88
2023/09/01 02:37:26;;;;;;;3.50;3.20;;;11.70;99.90;;;;;;5056405;28;20173;-88
2023/09/01 02:39:52;;;;;;;4.57;3.60;;;11.80;99.90;;;;;;5056456;28;20235;-88
2023/09/01 02:42:19;;;;;;;4.25;3.33;;;11.70;99.90;;;;;;5056470;28;20169;-86
2023/09/01 02:44:46;;;;;;;5.47;3.60;;;11.80;99.90;;;;;;5056157;28;20213;-90
2023/09/01 02:47:11;;;;;;;6.22;3.53;;;11.70;99.90;;;;;;5056381;28;20173;-88
2023/09/01 02:49:37;;;;;;;7.90;3.60;;;11.70;99.90;;;;;;5056418;28;20272;-88
2023/09/01 02:52:05;;;;;;;5.63;3.72;;;11.70;99.90;;;;;;5056250;28;20174;-88
2023/09/01 02:54:32;;;;;;;5.38;3.40;;;11.70;99.90;;;;;;5059197;28;20215;-87
2023/09/01 02:56:58;;;;;;;5.30;4.07;;;11.70;99.90;;;;;;5060161;28;20215;-87
2023/09/01 02:59:23;;;;;;;6.53;3.58;;;11.70;99.90;;;;;;5077827;28;20623;-88
2023/09/01 03:01:51;;;;;;;6.90;3.80;;;11.70;99.90;;;;;;5060406;28;20188;-89
2023/09/01 03:04:17;;;;;;;4.40;3.45;;;11.70;99.90;;;;;;5060423;28;20670;-89
2023/09/01 03:06:43;;;;;;;5.88;3.70;;;11.60;99.90;;;;;;5059966;28;20271;-89
2023/09/01 03:09:10;;;;;;;8.05;3.65;;;11.60;99.90;;;;;;5060345;28;20169;-88
2023/09/01 03:11:36;;;;;;;5.40;3.88;;;11.60;99.90;;;;;;5060172;28;20184;-88
2023/09/01 03:14:04;;;;;;;6.15;3.85;;;11.50;99.90;;;;;;5077702;28;20158;-89
2023/09/01 03:16:30;;;;;;;4.97;3.40;;;11.60;99.90;;;;;;5059951;28;20561;-88
2023/09/01 03:18:59;;;;;;;5.57;4.03;;;11.60;99.90;;;;;;5059911;28;20173;-88
2023/09/01 03:21:30;;;;;;;5.28;4.32;;;11.50;99.90;;;;;;5059783;28;20177;-89
2023/09/01 03:23:59;;;;;;;6.50;4.05;;;11.50;99.90;;;;;;5077870;28;20162;-89
2023/09/01 03:26:25;;;;;;;4.82;3.80;;;11.40;99.90;;;;;;5060126;28;20264;-89
2023/09/01 03:28:50;;;;;;;10.10;4.25;;;11.40;99.90;;;;;;5059437;28;20244;-88
2023/09/01 03:31:21;;;;;;;6.13;4.47;;;11.40;99.90;;;;;;5059710;28;20669;-88
2023/09/01 03:33:47;;;;;;;5.50;4.15;;;11.40;99.90;;;;;;5059684;28;20223;-88
2023/09/01 03:36:13;;;;;;;6.70;4.28;;;11.40;99.90;;;;;;5059473;28;20177;-88
2023/09/01 03:38:39;;;;;;;4.40;3.85;;;11.40;99.90;;;;;;5059570;28;20176;-87
2023/09/01 03:41:06;;;;;;;4.68;3.80;;;11.40;99.90;;;;;;5059619;28;20181;-88
2023/09/01 03:43:33;;;;;;;5.43;4.05;;;11.40;99.90;;;;;;5059129;28;20169;-88
2023/09/01 03:45:59;;;;;;;6.07;4.45;;;11.40;99.90;;;;;;5059602;28;20278;-88
2023/09/01 03:48:25;;;;;;;4.68;4.28;;;11.40;99.90;;;;;;5059518;28;20181;-88
2023/09/01 03:51:09;;;;;;;6.70;4.10;;;11.40;99.90;;;;;;5077247;28;20509;-88
2023/09/01 03:53:35;;;;;;;6.63;4.35;;;11.40;99.90;;;;;;5059377;28;20173;-88
2023/09/01 03:56:08;;;;;;;5.80;4.72;;;11.40;99.90;;;;;;5077209;28;20239;-87
2023/09/01 03:58:33;;;;;;;5.78;4.63;;;11.40;99.90;;;;;;5050797;28;20573;-88
2023/09/01 04:01:00;;;;;;;6.45;4.63;;;11.40;99.90;;;;;;5039158;28;20174;-88
2023/09/01 04:03:26;;;;;;;6.75;4.90;;;11.40;99.90;;;;;;5056915;28;20575;-87
2023/09/01 04:05:58;;;;;;;8.27;4.85;;;11.40;99.90;;;;;;5038826;28;20296;-88
2023/09/01 04:08:24;;;;;;;5.28;4.35;;;11.40;99.90;;;;;;5038730;28;20182;-88
2023/09/01 04:10:50;;;;;;;5.35;4.22;;;11.40;99.90;;;;;;5039031;28;20178;-88
2023/09/01 04:13:15;;;;;;;5.47;4.30;;;11.40;99.90;;;;;;5038730;28;20184;-87
2023/09/01 04:15:41;;;;;;;6.22;3.97;;;11.40;99.90;;;;;;5039078;28;20189;-88
2023/09/01 04:18:07;;;;;;;5.25;4.30;;;11.40;99.90;;;;;;5038889;28;20208;-88
2023/09/01 04:20:32;;;;;;;5.13;4.47;;;11.40;99.90;;;;;;5038804;28;20639;-88
2023/09/01 04:22:58;;;;;;;5.55;4.70;;;11.30;99.90;;;;;;5056620;28;20608;-87
2023/09/01 04:25:24;;;;;;;6.32;4.47;;;11.40;99.90;;;;;;5056532;28;20202;-88
2023/09/01 04:27:49;;;;;;;6.40;4.53;;;11.30;99.90;;;;;;5040561;28;20946;-88
2023/09/01 04:30:15;;;;;;;6.47;4.82;;;11.30;99.90;;;;;;5058206;28;20181;-88
2023/09/01 04:32:44;;;;;;;5.13;4.38;;;11.40;99.90;;;;;;5076294;28;20170;-89
2023/09/01 04:35:10;;;;;;;6.35;4.78;;;11.30;99.90;;;;;;5058587;28;20174;-89
2023/09/01 04:37:36;;;;;;;6.05;4.28;;;11.40;99.90;;;;;;5058475;28;20232;-88
2023/09/01 04:40:07;;;;;;;8.00;4.57;;;11.40;99.90;;;;;;5058434;28;20638;-88
2023/09/01 04:42:33;;;;;;;5.18;4.40;;;11.40;99.90;;;;;;5058455;28;20599;-88
2023/09/01 04:44:59;;;;;;;5.47;4.47;;;11.40;99.90;;;;;;5058040;28;20211;-87
2023/09/01 04:47:25;;;;;;;4.68;4.05;;;11.40;99.90;;;;;;5058213;28;20173;-87
2023/09/01 04:49:51;;;;;;;9.68;5.00;;;11.40;99.90;;;;;;5058314;28;20184;-88
2023/09/01 04:52:18;;;;;;;6.18;4.70;;;11.40;99.90;;;;;;5057691;28;20544;-89
2023/09/01 04:54:44;;;;;;;8.10;4.85;;;11.40;99.90;;;;;;5058137;28;20177;-87
2023/09/01 04:57:10;;;;;;;7.72;4.97;;;11.40;99.90;;;;;;5057997;28;20268;-88
2023/09/01 04:59:35;;;;;;;7.00;4.70;;;11.50;99.90;;;;;;5057706;28;20647;-88
2023/09/01 05:02:01;;;;;;;6.75;4.70;;;11.40;99.90;;;;;;5057963;28;20200;-87
2023/09/01 05:04:27;;;;;;;5.95;4.95;;;11.50;99.90;;;;;;5058031;28;20278;-88
2023/09/01 05:06:53;;;;;;;5.13;4.55;;;11.60;99.90;;;;;;5057896;28;20610;-87
2023/09/01 05:09:19;;;;;;;8.10;5.25;;;11.60;99.90;;;;;;5057535;28;20173;-88
2023/09/01 05:11:46;;;;;;;5.75;4.75;;;11.60;99.90;;;;;;5057632;28;20240;-88
2023/09/01 05:14:11;;;;;;;7.32;5.15;;;11.70;99.90;;;;;;5057467;28;20226;-87
2023/09/01 05:16:37;;;;;;;5.35;4.57;;;11.80;99.90;;;;;;5057017;28;20181;-88
2023/09/01 05:19:03;;;;;;;4.93;4.13;;;11.90;99.90;;;;;;5057636;28;20185;-88
2023/09/01 05:21:28;;;;;;;6.93;4.93;;;11.90;99.90;;;;;;5057539;28;20173;-88
2023/09/01 05:23:54;;;;;;;6.13;4.40;;;12.00;99.90;;;;;;5057255;28;20177;-88
2023/09/01 05:26:20;;;;;;;7.38;4.32;;;12.00;99.90;;;;;;5075144;28;20180;-87
2023/09/01 05:28:46;;;;;;;5.38;4.40;;;12.10;99.90;;;;;;5056872;28;20243;-88
2023/09/01 05:31:11;;;;;;;6.05;4.50;;;12.10;99.90;;;;;;5057333;28;20184;-87
2023/09/01 05:33:38;;;;;;;7.63;4.68;;;12.20;99.90;;;;;;5057298;28;20188;-87
2023/09/01 05:36:04;;;;;;;7.40;5.00;;;12.20;99.90;;;;;;5057253;28;20205;-87
2023/09/01 05:38:30;;;;;;;13.55;5.03;;;12.20;99.90;;;;;;5075105;28;20406;-88
2023/09/01 05:40:57;;;;;;;5.45;4.70;;;12.30;99.90;;;;;;5074731;28;20183;-89
2023/09/01 05:43:24;;;;;;;8.98;4.50;;;12.40;99.90;;;;;;5057049;28;20631;-89
2023/09/01 05:45:49;;;;;;;6.18;4.45;;;12.40;99.90;;;;;;5074868;28;20197;-87
2023/09/01 05:48:15;;;;;;;8.32;4.97;;;12.40;99.90;;;;;;5056974;28;20199;-88
2023/09/01 05:50:42;;;;;;;9.07;5.00;;;12.50;99.90;;;;;;5074756;28;20200;-87
2023/09/01 05:53:16;;;;;;;8.55;4.35;;;12.50;99.90;;;;;;5056821;28;20207;-90
2023/09/01 05:55:41;;;;;;;7.07;4.90;;;12.60;99.90;;;;;;5056820;28;20260;-88
2023/09/01 05:58:07;;;;;;;6.82;4.40;;;12.60;99.90;;;;;;5052062;28;20273;-87
2023/09/01 06:00:33;;;;;;;6.25;4.63;;;12.70;99.90;;;;;;5036578;28;20617;-88
2023/09/01 06:03:01;;;;;;;7.25;4.68;;;12.80;99.90;;;;;;5036849;28;20231;-88
2023/09/01 06:05:26;;;;;;;5.72;3.95;;;12.90;99.90;;;;;;5036644;28;20518;-87
2023/09/01 06:07:52;;;;;;;8.27;4.30;;;13.00;99.90;;;;;;5036769;28;20287;-88
2023/09/01 06:10:17;;;;;;;6.18;4.15;;;13.10;99.90;;;;;;5036957;28;20608;-87
2023/09/01 06:12:43;;;;;;;9.65;4.38;;;13.10;99.90;;;;;;5036415;28;20196;-87
2023/09/01 06:15:09;;;;;;;7.32;4.75;;;13.20;99.90;;;;;;5037391;28;20195;-88
2023/09/01 06:17:37;;;;;;;6.80;3.95;;;13.20;99.90;;;;;;5036217;28;20193;-87
2023/09/01 06:20:06;;;;;;;5.78;4.03;;;13.20;99.90;;;;;;5036576;28;20182;-88
2023/09/01 06:22:39;;;;;;;5.32;3.80;;;13.40;99.90;;;;;;5054307;28;20518;-88
2023/09/01 06:25:05;;;;;;;7.20;3.92;;;13.50;99.90;;;;;;5036574;28;20663;-87
2023/09/01 06:27:32;;;;;;;8.85;3.90;;;13.60;99.90;;;;;;5046195;28;20173;-88
2023/09/01 06:29:58;;;;;;;5.30;3.50;;;13.60;99.90;;;;;;5080460;28;20195;-86
2023/09/01 06:32:25;;;;;;;7.38;4.03;;;13.70;99.90;;;;;;5080684;28;20507;-87
2023/09/01 06:34:51;;;;;;;9.95;4.45;;;13.70;99.90;;;;;;5080697;28;20168;-89
2023/09/01 06:37:16;;;;;;;6.22;4.10;;;13.80;99.90;;;;;;5079575;28;20191;-88
2023/09/01 06:39:42;;;;;;;7.43;3.72;;;13.90;99.90;;;;;;5080199;28;20176;-88
2023/09/01 06:42:08;;;;;;;7.72;3.88;;;14.00;99.90;;;;;;5079910;28;20176;-87
2023/09/01 06:44:33;;;;;;;8.70;3.70;;;14.10;99.90;;;;;;5080519;28;20662;-87
2023/09/01 06:46:59;;;;;;;5.15;3.53;;;14.20;99.90;;;;;;5080260;28;20172;-87
2023/09/01 06:49:25;;;;;;;9.27;3.90;;;14.30;99.90;;;;;;5080140;28;20169;-87
2023/09/01 06:51:50;;;;;;;5.35;3.50;;;14.40;99.90;;;;;;5080273;28;20203;-87
2023/09/01 06:54:17;;;;;;;3.65;3.10;;;14.50;99.90;;;;;;5080331;28;20173;-88
2023/09/01 06:56:43;;;;;;;6.10;3.60;;;14.50;99.90;;;;;;5098055;28;20263;-88
2023/09/01 06:59:08;;;;;;;4.35;2.90;;;14.60;99.90;;;;;;5080246;28;20267;-88
2023/09/01 07:01:34;;;;;;;8.55;3.72;;;14.70;99.90;;;;;;5080109;28;20176;-88
2023/09/01 07:04:03;;;;;;;6.25;3.50;;;14.80;99.90;;;;;;5097985;28;20230;-86
2023/09/01 07:06:28;;;;;;;6.97;3.38;;;14.80;99.90;;;;;;5079991;28;20652;-87
2023/09/01 07:08:54;;;;;;;10.82;4.10;;;14.80;99.90;;;;;;5079995;28;20180;-87
2023/09/01 07:11:21;;;;;;;8.25;3.83;;;14.90;99.90;;;;;;5097984;28;20645;-87
2023/09/01 07:13:47;;;;;;;8.02;3.63;;;15.00;99.90;;;;;;5080230;28;20629;-88
2023/09/01 07:16:14;;;;;;;4.65;3.50;;;15.00;99.90;;;;;;5098259;28;20187;-88
2023/09/01 07:18:40;;;;;;;6.75;3.45;;;15.10;99.90;;;;;;5080196;28;20179;-88
2023/09/01 07:21:05;;;;;;;8.73;3.58;;;15.20;99.90;;;;;;5097978;28;20180;-88
2023/09/01 07:23:32;;;;;;;8.77;3.33;;;15.30;99.90;;;;;;5079607;28;20176;-88
2023/09/01 07:25:59;;;;;;;6.47;3.63;;;15.40;99.90;;;;;;5079618;28;20216;-88
2023/09/01 07:28:25;;;;;;;10.25;4.05;;;15.40;99.90;;;;;;5087059;28;20235;-88
2023/09/01 07:30:53;;;;;;;9.60;4.10;;;15.50;99.90;;;;;;5099935;28;20176;-88
2023/09/01 07:33:19;;;;;;;9.68;4.45;;;15.50;99.90;;;;;;5117986;28;20171;-89
2023/09/01 07:35:52;;;;;;;12.48;4.68;;;15.60;99.90;;;;;;5100107;28;20167;-87
2023/09/01 07:38:18;;;;;;;10.98;4.80;;;15.60;99.90;;;;;;5099667;28;20179;-88
2023/09/01 07:40:45;;;;;;;6.82;4.05;;;15.70;99.90;;;;;;5099334;28;20172;-87
2023/09/01 07:43:11;;;;;;;10.27;4.90;;;15.80;99.90;;;;;;5099361;28;20221;-87
2023/09/01 07:45:36;;;;;;;11.75;5.07;;;15.90;99.90;;;;;;5099741;28;20315;-89
2023/09/01 07:48:03;;;;;;;8.52;4.47;;;15.90;99.90;;;;;;5099754;28;20658;-89
2023/09/01 07:50:30;;;;;;;5.82;4.55;;;15.90;99.90;;;;;;5099762;28;20180;-88
2023/09/01 07:52:59;;;;;;;11.98;5.10;;;16.00;99.90;;;;;;5099707;28;20183;-88
2023/09/01 07:55:27;;;;;;;7.97;4.55;;;16.10;99.90;;;;;;5099565;28;20623;-88
2023/09/01 07:57:53;;;;;;;8.40;5.10;;;16.10;99.90;;;;;;5085557;28;20202;-88
2023/09/01 08:00:20;;;;;;;9.35;5.13;;;16.20;99.90;;;;;;5079257;28;20185;-88
2023/09/01 08:02:46;;;;;;;10.02;5.13;;;16.30;99.90;;;;;;5079236;28;20610;-88
2023/09/01 08:05:15;;;;;;;11.43;5.80;;;16.40;99.90;;;;;;5079005;28;20598;-87
2023/09/01 08:07:41;;;;;;;9.10;5.03;;;16.40;99.90;;;;;;5079166;28;20233;-87
2023/09/01 08:10:09;;;;;;;9.15;5.95;;;16.50;99.90;;;;;;5079086;28;20808;-89
2023/09/01 08:12:35;;;;;;;8.10;5.40;;;16.60;99.90;;;;;;5078727;28;20517;-87
2023/09/01 08:15:00;;;;;;;11.65;6.60;;;16.60;99.90;;;;;;5078779;28;20259;-89
2023/09/01 08:17:26;;;;;;;15.30;6.40;;;16.70;99.90;;;;;;5078933;28;20629;-89
2023/09/01 08:19:52;;;;;;;12.73;6.22;;;16.80;99.90;;;;;;5078830;28;20272;-88
2023/09/01 08:22:17;;;;;;;10.90;6.05;;;16.90;99.90;;;;;;5096738;28;20173;-91
2023/09/01 08:24:44;;;;;;;14.15;6.35;;;16.90;99.90;;;;;;5078741;28;20200;-88
2023/09/01 08:27:11;;;;;;;11.60;6.72;;;16.80;99.90;;;;;;5096690;28;20705;-90
2023/09/01 08:29:38;;;;;;;13.13;6.85;;;16.90;99.90;;;;;;5060997;28;20279;-88
2023/09/01 08:32:05;;;;;;;9.02;6.25;;;16.90;99.90;;;;;;5058736;28;20177;-90
2023/09/01 08:34:32;;;;;;;13.82;6.10;;;17.10;99.90;;;;;;5058698;28;20180;-89
2023/09/01 08:36:58;;;;;;;9.82;6.97;;;17.10;99.90;;;;;;5058579;28;20272;-89
2023/09/01 08:39:24;;;;;;;9.48;6.55;;;17.20;99.90;;;;;;5058527;28;20264;-88
2023/09/01 08:41:52;;;;;;;10.95;6.55;;;17.30;99.90;;;;;;5076112;28;20179;-89
2023/09/01 08:44:23;;;;;;;12.90;7.30;;;17.40;99.90;;;;;;5076685;28;20224;-88
2023/09/01 08:46:53;;;;;;;10.05;6.78;;;17.60;99.90;;;;;;5058335;28;20665;-89
2023/09/01 08:49:19;;;;;;;9.77;6.57;;;17.60;99.90;;;;;;5058381;28;20197;-88
2023/09/01 08:51:47;;;;;;;16.30;6.95;;;17.60;99.90;;;;;;5075305;28;20196;-89
2023/09/01 08:54:18;;;;;;;16.85;8.00;;;17.70;99.90;;;;;;5058549;28;20177;-89
2023/09/01 08:56:43;;;;;;;11.57;6.90;;;17.70;99.90;;;;;;5057837;28;20181;-89
2023/09/01 08:59:09;;;;;;;13.70;7.88;;;17.80;99.90;;;;;;5057680;28;20517;-88
2023/09/01 09:01:37;;;;;;;13.63;7.82;;;17.80;99.90;;;;;;5057908;28;20181;-89
2023/09/01 09:04:04;;;;;;;15.88;8.02;;;17.80;99.90;;;;;;5057808;28;20612;-89
2023/09/01 09:06:38;;;;;;;13.25;8.30;;;17.80;99.90;;;;;;5057874;28;20174;-90
2023/09/01 09:09:07;;;;;;;12.50;7.40;;;17.90;99.90;;;;;;5057587;28;20183;-90
2023/09/01 09:11:32;;;;;;;14.57;8.40;;;18.00;99.90;;;;;;5057489;28;20177;-90
2023/09/01 09:14:02;;;;;;;16.95;7.85;;;18.20;99.90;;;;;;5058338;28;20181;-91
2023/09/01 09:16:28;;;;;;;18.45;8.75;;;18.30;99.90;;;;;;5076062;28;20173;-91
2023/09/01 09:18:53;;;;;;;14.85;8.32;;;18.40;99.90;;;;;;5057950;28;20176;-89
2023/09/01 09:21:27;;;;;;;10.00;6.95;;;18.40;99.90;;;;;;5057892;28;20208;-89
2023/09/01 09:23:56;;;;;;;13.95;7.85;;;18.40;99.90;;;;;;5057834;28;20169;-90
2023/09/01 09:26:26;;;;;;;15.43;7.60;;;18.40;99.90;;;;;;5057119;28;20673;-88
2023/09/01 09:28:53;;;;;;;14.57;7.13;;;18.50;99.90;;;;;;5057907;28;20320;-89
2023/09/01 09:31:37;;;;;;;14.52;7.35;;;18.40;99.90;;;;;;5058064;28;20184;-91
2023/09/01 09:34:27;;;;;;;13.48;7.43;;;18.50;99.90;;;;;;5057852;28;20544;-90
2023/09/01 09:36:53;;;;;;;10.98;6.45;;;18.50;99.90;;;;;;5075505;28;20169;-90
2023/09/01 09:39:27;;;;;;;11.93;7.07;;;18.50;99.90;;;;;;5057823;28;20176;-91
2023/09/01 09:41:54;;;;;;;14.50;6.68;;;18.50;99.90;;;;;;5057842;28;20254;-93
2023/09/01 09:44:34;;;;;;;11.18;6.50;;;18.60;99.90;;;;;;5057803;28;20208;-94
2023/09/01 09:47:03;;;;;;;10.68;6.47;;;18.70;99.90;;;;;;5057657;28;20177;-94
2023/09/01 09:49:32;;;;;;;10.70;6.40;;;18.70;99.90;;;;;;5057600;28;20199;-93
2023/09/01 09:52:00;;;;;;;14.07;6.80;;;18.80;99.90;;;;;;5057706;28;20189;-93
2023/09/01 09:54:30;;;;;;;14.60;6.30;;;18.90;99.90;;;;;;5057747;28;20177;-90
2023/09/01 09:56:57;;;;;;;11.32;6.35;;;18.90;99.90;;;;;;5057378;28;20635;-92
2023/09/01 09:59:40;;;;;;;11.13;6.95;;;18.90;99.90;;;;;;5057686;28;20619;-94
2023/09/01 10:02:25;;;;;;;16.30;6.57;;;18.90;99.90;;;;;;5058177;28;20507;-93
2023/09/01 10:04:53;;;;;;;13.75;6.38;;;19.10;99.90;;;;;;5057612;28;20216;-93
2023/09/01 10:07:21;;;;;;;10.73;5.90;;;19.10;99.90;;;;;;5057535;28;20256;-91
2023/09/01 10:09:48;;;;;;;11.50;6.10;;;19.20;99.90;;;;;;5057550;28;20231;-93
2023/09/01 10:12:14;;;;;;;15.07;6.05;;;19.20;99.90;;;;;;5057218;28;20487;-94
2023/09/01 10:14:42;;;;;;;10.82;5.80;;;19.10;99.90;;;;;;5057525;28;20176;-94
2023/09/01 10:17:12;;;;;;;11.35;5.13;;;19.10;99.90;;;;;;5057716;28;20165;-93
2023/09/01 10:19:37;;;;;;;13.30;6.13;;;19.10;99.90;;;;;;5057675;28;20574;-91
2023/09/01 10:22:03;;;;;;;11.15;5.80;;;19.00;99.90;;;;;;5057448;28;20177;-93
2023/09/01 10:24:32;;;;;;;15.90;5.68;;;19.10;99.90;;;;;;5057275;28;20213;-92
2023/09/01 10:27:09;;;;;;;11.23;5.13;;;19.30;99.90;;;;;;5049441;28;20181;-96
2023/09/01 10:29:35;;;;;;;10.05;4.70;;;19.50;99.90;;;;;;5057146;28;20274;-92
2023/09/01 10:32:18;;;;;;;12.13;4.55;;;19.60;99.90;;;;;;5057496;28;20174;-96
2023/09/01 10:34:53;;;;;;;11.25;4.43;;;19.60;99.90;;;;;;5057695;28;20170;-94
2023/09/01 10:37:26;;;;;;;12.10;5.00;;;19.50;99.90;;;;;;5057153;28;20267;-96
2023/09/01 10:39:51;;;;;;;13.70;4.35;;;19.40;99.90;;;;;;5057140;28;20624;-94
2023/09/01 10:42:37;;;;;;;11.63;4.60;;;19.40;99.90;;;;;;5053818;28;20193;-95
2023/09/01 10:45:06;;;;;;;9.93;4.70;;;19.40;99.90;;;;;;5037183;28;20214;-95
2023/09/01 10:47:31;;;;;;;8.07;3.67;;;19.50;99.90;;;;;;5037159;28;20220;-93
2023/09/01 10:49:59;;;;;;;8.60;4.00;;;19.50;99.90;;;;;;5037254;28;20186;-94
2023/09/01 10:52:26;;;;;;;10.70;4.75;;;19.50;99.90;;;;;;5037143;28;20185;-94
2023/09/01 10:55:17;;;;;;;7.35;4.10;;;19.60;99.90;;;;;;5053709;28;20228;-95
2023/09/01 10:57:50;;;;;;;10.98;4.00;;;19.60;99.90;;;;;;5054820;28;20620;-95
2023/09/01 11:00:33;;;;;;;9.40;4.40;;;19.50;99.90;;;;;;5037520;28;20189;-96
2023/09/01 11:03:30;;;;;;;9.73;4.10;;;19.60;99.90;;;;;;5037025;28;20201;-95
2023/09/01 11:06:12;;;;;;;10.80;4.18;;;19.90;99.90;;;;;;5037810;28;20213;-96
2023/09/01 11:08:38;;;;;;;9.18;4.10;;;20.00;99.90;;;;;;5037223;28;20174;-94
2023/09/01 11:11:10;;;;;;;12.52;4.30;;;20.20;99.90;;;;;;5037836;28;20289;-95
2023/09/01 11:13:36;;;;;;;8.20;3.80;;;20.30;99.90;;;;;;5052617;28;20185;-95
2023/09/01 11:16:11;;;;;;;9.80;4.22;;;20.30;99.90;;;;;;5060175;28;20265;-95
2023/09/01 11:18:36;;;;;;;8.30;4.05;;;20.30;99.90;;;;;;5060790;28;20173;-96
2023/09/01 11:21:07;;;;;;;8.73;4.03;;;20.30;99.90;;;;;;5062400;28;20180;-96
2023/09/01 11:23:33;;;;;;;9.55;3.95;;;20.30;99.90;;;;;;5061954;28;20169;-96
2023/09/01 11:26:15;;;;;;;8.05;3.95;;;20.30;99.90;;;;;;5061721;28;20216;-95
2023/09/01 11:28:41;;;;;;;8.73;4.10;;;20.50;99.90;;;;;;5067549;28;20225;-95
2023/09/01 11:31:07;;;;;;;5.72;3.13;;;20.50;99.90;;;;;;5077085;28;20185;-95
2023/09/01 11:33:36;;;;;;;8.82;3.67;;;20.50;99.90;;;;;;5077585;28;20180;-95
2023/09/01 11:36:11;;;;;;;5.22;2.88;;;20.40;99.90;;;;;;5078490;28;20188;-95
2023/09/01 11:38:39;;;;;;;7.70;3.13;;;20.30;99.90;;;;;;5076796;28;20630;-95
2023/09/01 11:41:08;;;;;;;10.57;3.10;;;20.30;99.90;;;;;;5078134;28;20687;-95
2023/09/01 11:43:38;;;;;;;8.10;3.08;;;20.30;99.90;;;;;;5061747;28;20193;-96
2023/09/01 11:46:53;;;;;;;11.60;3.42;;;20.40;99.90;;;;;;5057513;28;20231;-94
2023/09/01 11:49:19;;;;;;;4.28;2.42;;;20.40;99.90;;;;;;5059530;28;20262;-95
2023/09/01 11:51:45;;;;;;;15.48;5.75;;;20.30;99.90;;;;;;5057406;28;20213;-95
2023/09/01 11:54:17;;;;;;;6.78;2.90;;;20.10;99.90;;;;;;5059441;28;20197;-96
2023/09/01 11:56:47;;;;;;;8.20;2.88;;;20.00;99.90;;;;;;5058809;28;20174;-92
2023/09/01 11:59:19;;;;;;;6.95;2.60;;;19.90;99.90;;;;;;5058377;28;20170;-96
2023/09/01 12:01:45;;;;;;;7.28;2.72;;;19.80;99.90;;;;;;5056437;28;20178;-95
2023/09/01 12:04:14;;;;;;;8.05;2.83;;;19.90;99.90;;;;;;5056593;28;20177;-92
2023/09/01 12:06:46;;;;;;;4.25;2.30;;;19.80;99.90;;;;;;5058461;28;20178;-96
2023/09/01 12:09:13;;;;;;;7.10;2.40;;;19.80;99.90;;;;;;5057006;28;20170;-96
2023/09/01 12:12:02;;;;;;;6.60;2.28;;;19.70;99.90;;;;;;5056321;28;20208;-95
2023/09/01 12:14:32;;;;;;;5.18;2.60;;;19.70;99.90;;;;;;5056226;28;20181;-96
2023/09/01 12:17:00;;;;;;;7.55;2.55;;;19.60;99.90;;;;;;5056279;28;20624;-95
2023/09/01 12:19:27;;;;;;;6.07;2.20;;;19.50;99.90;;;;;;5070345;28;20667;-96
2023/09/01 12:21:58;;;;;;;7.65;2.58;;;19.40;99.90;;;;;;5076844;28;20181;-95
2023/09/01 12:24:23;;;;;;;5.93;2.25;;;19.30;99.90;;;;;;5078308;28;20715;-96
2023/09/01 12:26:50;;;;;;;8.68;2.45;;;19.20;99.90;;;;;;5069249;28;20205;-93
2023/09/01 12:29:16;;;;;;;8.07;2.20;;;19.20;99.90;;;;;;5071485;28;20229;-94
2023/09/01 12:31:42;;;;;;;3.78;2.05;;;19.10;99.90;;;;;;5061074;28;20219;-93
2023/09/01 12:34:08;;;;;;;5.80;2.00;;;19.00;99.90;;;;;;5080126;28;20176;-94
2023/09/01 12:36:49;;;;;;;6.35;2.03;;;19.00;99.90;;;;;;5080129;28;20259;-94
2023/09/01 12:39:14;;;;;;;5.32;2.20;;;19.00;99.90;;;;;;5079337;28;20180;-95
2023/09/01 12:41:40;;;;;;;5.15;2.20;;;18.90;99.90;;;;;;5080289;28;20192;-96
2023/09/01 12:44:06;;;;;;;4.40;2.13;;;18.90;99.90;;;;;;5079701;28;20187;-95
2023/09/01 12:46:32;;;;;;;6.35;2.15;;;18.80;99.90;;;;;;5070929;28;20207;-94
2023/09/01 12:48:58;;;;;;;5.63;2.33;;;18.80;99.90;;;;;;5059413;28;20205;-93
2023/09/01 12:51:24;;;;;;;5.20;2.00;;;18.70;99.90;;;;;;5063101;28;20237;-94
2023/09/01 12:53:50;;;;;;;4.60;1.70;;;18.70;99.90;;;;;;5078895;28;20181;-92